Fisher, Illinois
Current Conditions -  °F | °C
As of 1:30 AM on Friday 31 Oct 2014 (Local Time) from KTIP Reporting Station
Overcast Overcast  
Wind Chill: 45°   Ceiling: 5500
Heat Index: 45°   Visibility: 10mi
Dew Point: 41°   Wind: 3mph
Humidity: 88%   Direction: 320°NW
Pressure: 30.05"   Gusts: NA
Location:  40.31°N, 88.35°W
Report Text: KTIP 310630Z AUTO 32003KT 10SM BKN055 OVC095 07/05 A3005 RMK AO2 T00700051
Loading
Personal Weather Stations






























Interactive Weather Map
Tropical Storm Tracking
New forecast layout! Learn more

10-Day Weather Forecast

Advertisements
Track Severe Weather on mobile